Wetterstation Vordersexau
Wetterdaten: Woche 20.02.12 - 26.02.12 (KW8)
Datum Zeit Temp. A. Feuchte A. Luftdruck Regen Wind Richtung Taupunkt Windchill Windben
20.02.2012 00:00 -1,5 C 86 % 1027,2 hPa 0,0 l/m 0,0 km/h NO -3,5 C -1,5 C 0,0 km/h
20.02.2012 01:00 -2,4 C 87 % 1027,6 hPa 0,0 l/m 0,0 km/h N-NO -4,3 C -2,4 C 0,0 km/h
20.02.2012 02:00 -1,5 C 87 % 1028,0 hPa 0,0 l/m 0,0 km/h NO -3,4 C -1,5 C 0,0 km/h
20.02.2012 03:00 -1,5 C 87 % 1028,1 hPa 0,0 l/m 0,0 km/h O-NO -3,4 C -1,5 C 0,0 km/h
20.02.2012 04:00 -1,4 C 87 % 1028,4 hPa 0,0 l/m 0,0 km/h O-NO -3,3 C -1,4 C 0,0 km/h
20.02.2012 05:00 -1,8 C 87 % 1028,9 hPa 0,0 l/m 0,0 km/h O-SO -3,7 C -1,8 C 0,0 km/h
20.02.2012 06:00 -2,1 C 87 % 1029,6 hPa 0,0 l/m 0,0 km/h S-SO -4,0 C -2,1 C 0,0 km/h
20.02.2012 07:00 -1,5 C 86 % 1029,9 hPa 0,0 l/m 0,0 km/h O-SO -3,5 C -1,5 C 0,0 km/h
20.02.2012 08:00 -0,7 C 86 % 1030,5 hPa 0,0 l/m 0,0 km/h O-SO -2,7 C -0,7 C 0,0 km/h
20.02.2012 09:00 1,8 C 87 % 1030,7 hPa 0,0 l/m 0,0 km/h SO -0,1 C 1,8 C 0,0 km/h
20.02.2012 10:00 6,6 C 77 % 1031,1 hPa 0,0 l/m 0,0 km/h O-SO 2,9 C 6,6 C 0,0 km/h
20.02.2012 11:00 5,9 C 59 % 1031,3 hPa 0,0 l/m 0,0 km/h NO -1,5 C 5,9 C 0,0 km/h
20.02.2012 12:00 5,0 C 58 % 1031,3 hPa 0,0 l/m 0,0 km/h O-NO -2,6 C 5,0 C 0,0 km/h
20.02.2012 13:00 5,5 C 57 % 1031,0 hPa 0,0 l/m 0,0 km/h N-NO -2,3 C 5,5 C 0,0 km/h
20.02.2012 14:00 7,9 C 52 % 1030,6 hPa 0,0 l/m 0,0 km/h O-NO -1,3 C 7,9 C 0,0 km/h
20.02.2012 15:00 5,5 C 51 % 1030,4 hPa 0,0 l/m 0,0 km/h NO -3,8 C 5,5 C 0,0 km/h
20.02.2012 16:00 12,3 C 41 % 1030,1 hPa 0,0 l/m 0,0 km/h NO -0,6 C 12,3 C 0,0 km/h
20.02.2012 17:00 8,5 C 46 % 1030,1 hPa 0,0 l/m 0,0 km/h N-NO -2,4 C 8,5 C 0,0 km/h
20.02.2012 18:00 0,3 C 64 % 1030,1 hPa 0,0 l/m 0,0 km/h SO -5,7 C 0,3 C 0,0 km/h
20.02.2012 19:00 -1,4 C 73 % 1030,5 hPa 0,0 l/m 4,5 km/h SO -5,6 C -1,4 C 2,5 km/h
20.02.2012 20:00 -1,8 C 79 % 1030,4 hPa 0,0 l/m 0,0 km/h O-NO -4,9 C -1,8 C 0,0 km/h
20.02.2012 21:00 -2,1 C 81 % 1030,7 hPa 0,0 l/m 0,0 km/h O-SO -4,9 C -2,1 C 0,0 km/h
20.02.2012 22:00 -2,8 C 83 % 1030,7 hPa 0,0 l/m 1,3 km/h SO -5,3 C -2,8 C 0,7 km/h
20.02.2012 23:00 -3,4 C 84 % 1030,8 hPa 0,0 l/m 0,0 km/h O-SO -5,7 C -3,4 C 0,0 km/h
21.02.2012 00:00 -3,9 C 85 % 1030,4 hPa 0,0 l/m 1,3 km/h O-NO -6,0 C -3,9 C 0,7 km/h
21.02.2012 01:00 -3,9 C 85 % 1030,1 hPa 0,0 l/m 0,0 km/h O-NO -6,0 C -3,9 C 0,0 km/h
21.02.2012 02:00 -4,5 C 86 % 1030,1 hPa 0,0 l/m 0,0 km/h O-SO -6,5 C -4,5 C 0,0 km/h
21.02.2012 03:00 -4,4 C 86 % 1029,5 hPa 0,0 l/m 0,0 km/h O -6,4 C -4,4 C 0,0 km/h
21.02.2012 04:00 -4,9 C 86 % 1029,7 hPa 0,0 l/m 0,0 km/h O-NO -6,9 C -4,9 C 0,0 km/h
21.02.2012 05:00 -5,5 C 86 % 1029,5 hPa 0,0 l/m 0,0 km/h NO -7,5 C -5,5 C 0,0 km/h
21.02.2012 06:00 -5,9 C 86 % 1030,0 hPa 0,0 l/m 0,0 km/h O -7,9 C -5,9 C 0,0 km/h
21.02.2012 07:00 -6,1 C 87 % 1029,9 hPa 0,0 l/m 0,0 km/h O-SO -7,9 C -6,1 C 0,0 km/h
21.02.2012 08:00 -3,7 C 87 % 1030,6 hPa 0,0 l/m 0,0 km/h O-SO -5,5 C -3,7 C 0,0 km/h
21.02.2012 09:00 2,8 C 80 % 1030,8 hPa 0,0 l/m 0,0 km/h SO -0,3 C 2,8 C 0,0 km/h
21.02.2012 10:00 7,9 C 59 % 1030,8 hPa 0,0 l/m 0,0 km/h NW 0,4 C 7,9 C 0,0 km/h
21.02.2012 11:00 9,2 C 50 % 1030,8 hPa 0,0 l/m 0,0 km/h W -0,7 C 9,2 C 0,0 km/h
21.02.2012 12:00 8,4 C 48 % 1030,3 hPa 0,0 l/m 0,6 km/h SW -2,0 C 8,4 C 0,4 km/h
21.02.2012 13:00 7,8 C 49 % 1029,8 hPa 0,0 l/m 7,8 km/h W-NW -2,2 C 6,7 C 4,3 km/h
21.02.2012 14:00 9,4 C 47 % 1029,6 hPa 0,0 l/m 4,5 km/h NW -1,3 C 9,4 C 2,5 km/h
21.02.2012 15:00 11,6 C 43 % 1029,4 hPa 0,0 l/m 0,0 km/h W-NW -0,5 C 11,6 C 0,0 km/h
21.02.2012 16:00 10,8 C 43 % 1029,5 hPa 0,0 l/m 3,9 km/h W-NW -1,3 C 10,8 C 2,2 km/h
21.02.2012 17:00 6,9 C 47 % 1029,5 hPa 0,0 l/m 0,0 km/h O-SO -3,6 C 6,9 C 0,0 km/h
21.02.2012 18:00 0,2 C 65 % 1030,3 hPa 0,0 l/m 0,0 km/h O-SO -5,6 C 0,2 C 0,0 km/h
21.02.2012 19:00 -1,3 C 72 % 1030,4 hPa 0,0 l/m 0,0 km/h O-SO -5,7 C -1,3 C 0,0 km/h
21.02.2012 20:00 -1,9 C 78 % 1030,5 hPa 0,0 l/m 0,0 km/h O-NO -5,2 C -1,9 C 0,0 km/h
21.02.2012 21:00 -2,1 C 82 % 1030,7 hPa 0,0 l/m 0,0 km/h O-NO -4,7 C -2,1 C 0,0 km/h
21.02.2012 22:00 -2,1 C 83 % 1030,7 hPa 0,0 l/m 0,0 km/h NO -4,6 C -2,1 C 0,0 km/h
21.02.2012 23:00 -3,1 C 84 % 1030,7 hPa 0,0 l/m 0,0 km/h NO -5,4 C -3,1 C 0,0 km/h
22.02.2012 00:00 -3,3 C 85 % 1030,9 hPa 0,0 l/m 0,0 km/h NO -5,5 C -3,3 C 0,0 km/h
22.02.2012 01:00 -3,6 C 86 % 1030,7 hPa 0,0 l/m 0,0 km/h NO -5,6 C -3,6 C 0,0 km/h
22.02.2012 02:00 -4,1 C 86 % 1030,5 hPa 0,0 l/m 0,0 km/h O-NO -6,1 C -4,1 C 0,0 km/h
22.02.2012 03:00 -4,4 C 86 % 1029,9 hPa 0,0 l/m 0,0 km/h NO -6,4 C -4,4 C 0,0 km/h
22.02.2012 04:00 -4,6 C 87 % 1029,6 hPa 0,0 l/m 0,0 km/h NO -6,4 C -4,6 C 0,0 km/h
22.02.2012 05:00 -5,1 C 87 % 1029,9 hPa 0,0 l/m 0,0 km/h O-NO -6,9 C -5,1 C 0,0 km/h
22.02.2012 06:00 -5,1 C 87 % 1029,5 hPa 0,0 l/m 0,0 km/h O-NO -6,9 C -5,1 C 0,0 km/h
22.02.2012 07:00 -5,4 C 86 % 1029,6 hPa 0,0 l/m 0,0 km/h SO -7,4 C -5,4 C 0,0 km/h
22.02.2012 08:00 -3,1 C 86 % 1030,0 hPa 0,0 l/m 0,0 km/h SO -5,1 C -3,1 C 0,0 km/h
22.02.2012 09:00 3,6 C 83 % 1029,9 hPa 0,0 l/m 0,0 km/h SO 1,0 C 3,6 C 0,0 km/h
22.02.2012 10:00 8,5 C 61 % 1029,9 hPa 0,0 l/m 0,0 km/h W 1,4 C 8,5 C 0,0 km/h
22.02.2012 11:00 10,1 C 50 % 1029,4 hPa 0,0 l/m 0,0 km/h W-NW 0,2 C 10,1 C 0,0 km/h
22.02.2012 12:00 9,3 C 49 % 1028,3 hPa 0,0 l/m 8,4 km/h SW -0,9 C 7,8 C 4,7 km/h
22.02.2012 13:00 9,9 C 47 % 1027,3 hPa 0,0 l/m 0,0 km/h W -0,9 C 9,9 C 0,0 km/h
22.02.2012 14:00 11,9 C 41 % 1026,7 hPa 0,0 l/m 0,0 km/h SW -0,9 C 11,9 C 0,0 km/h
22.02.2012 15:00 14,1 C 39 % 1026,1 hPa 0,0 l/m 1,3 km/h W-SW 0,4 C 14,1 C 0,7 km/h
22.02.2012 16:00 14,0 C 35 % 1025,8 hPa 0,0 l/m 0,0 km/h S -1,2 C 14,0 C 0,0 km/h
22.02.2012 17:00 12,9 C 39 % 1025,4 hPa 0,0 l/m 0,0 km/h O -0,7 C 12,9 C 0,0 km/h
22.02.2012 18:00 2,7 C 58 % 1025,9 hPa 0,0 l/m 0,0 km/h O-SO -4,7 C 2,7 C 0,0 km/h
22.02.2012 19:00 0,9 C 69 % 1026,2 hPa 0,0 l/m 0,0 km/h O -4,1 C 0,9 C 0,0 km/h
22.02.2012 20:00 -0,5 C 75 % 1026,1 hPa 0,0 l/m 0,0 km/h O-SO -4,4 C -0,5 C 0,0 km/h
22.02.2012 21:00 -0,6 C 78 % 1026,1 hPa 0,0 l/m 0,0 km/h O-SO -3,9 C -0,6 C 0,0 km/h
22.02.2012 22:00 -0,6 C 80 % 1025,4 hPa 0,0 l/m 1,9 km/h SO -3,6 C -0,6 C 1,1 km/h
22.02.2012 23:00 -0,9 C 80 % 1025,3 hPa 0,0 l/m 0,0 km/h O-NO -3,9 C -0,9 C 0,0 km/h
23.02.2012 00:00 -1,9 C 82 % 1025,3 hPa 0,0 l/m 0,0 km/h O-NO -4,6 C -1,9 C 0,0 km/h
23.02.2012 01:00 -1,9 C 83 % 1025,0 hPa 0,0 l/m 0,0 km/h N-NO -4,4 C -1,9 C 0,0 km/h
23.02.2012 02:00 -1,5 C 84 % 1025,2 hPa 0,0 l/m 0,0 km/h O -3,8 C -1,5 C 0,0 km/h
23.02.2012 03:00 -0,6 C 83 % 1024,4 hPa 0,0 l/m 0,0 km/h SO -3,1 C -0,6 C 0,0 km/h
23.02.2012 04:00 -0,4 C 82 % 1024,1 hPa 0,0 l/m 0,0 km/h SO -3,1 C -0,4 C 0,0 km/h
23.02.2012 05:00 0,4 C 81 % 1024,2 hPa 0,0 l/m 0,0 km/h O-SO -2,5 C 0,4 C 0,0 km/h
23.02.2012 06:00 0,6 C 81 % 1024,5 hPa 0,0 l/m 0,6 km/h SO -2,3 C 0,6 C 0,4 km/h
23.02.2012 07:00 1,3 C 80 % 1024,7 hPa 0,0 l/m 5,8 km/h O-NO -1,8 C 1,3 C 3,2 km/h
23.02.2012 08:00 2,0 C 79 % 1024,6 hPa 0,0 l/m 0,0 km/h O-NO -1,2 C 2,0 C 0,0 km/h
23.02.2012 09:00 3,5 C 77 % 1024,9 hPa 0,0 l/m 0,0 km/h W-SW -0,1 C 3,5 C 0,0 km/h
23.02.2012 10:00 7,0 C 54 % 1025,2 hPa 0,0 l/m 30,5 km/h S-SW -1,7 C -3,7 C 16,9 km/h
23.02.2012 11:00 7,9 C 46 % 1025,4 hPa 0,0 l/m 27,9 km/h SW -3,0 C -1,8 C 15,5 km/h
23.02.2012 12:00 8,6 C 41 % 1025,2 hPa 0,0 l/m 42,8 km/h W -3,9 C -3,6 C 23,8 km/h
23.02.2012 13:00 8,2 C 50 % 1025,0 hPa 0,0 l/m 31,8 km/h W-SW -1,6 C -2,3 C 17,6 km/h
23.02.2012 14:00 7,8 C 58 % 1025,2 hPa 0,0 l/m 14,9 km/h W 0,1 C 2,5 C 8,3 km/h
23.02.2012 15:00 8,4 C 62 % 1025,5 hPa 0,0 l/m 1,9 km/h SW 1,6 C 8,4 C 1,1 km/h
23.02.2012 16:00 7,9 C 65 % 1025,9 hPa 0,0 l/m 4,5 km/h W-SW 1,7 C 7,9 C 2,5 km/h
23.02.2012 17:00 7,6 C 68 % 1026,0 hPa 0,0 l/m 9,1 km/h SW 2,1 C 5,5 C 5,0 km/h
23.02.2012 18:00 7,0 C 70 % 1026,7 hPa 0,0 l/m 0,0 km/h N 1,9 C 7,0 C 0,0 km/h
23.02.2012 19:00 6,3 C 73 % 1026,7 hPa 0,0 l/m 0,0 km/h N-NO 1,8 C 6,3 C 0,0 km/h
23.02.2012 20:00 5,3 C 76 % 1027,2 hPa 0,0 l/m 0,0 km/h NO 1,4 C 5,3 C 0,0 km/h
23.02.2012 21:00 4,9 C 79 % 1027,5 hPa 0,0 l/m 0,0 km/h O-SO 1,6 C 4,9 C 0,0 km/h
23.02.2012 22:00 4,7 C 80 % 1027,8 hPa 0,0 l/m 0,0 km/h O-NO 1,6 C 4,7 C 0,0 km/h
23.02.2012 23:00 4,6 C 81 % 1027,9 hPa 0,0 l/m 0,0 km/h O-NO 1,6 C 4,6 C 0,0 km/h
24.02.2012 00:00 4,6 C 82 % 1027,8 hPa 0,0 l/m 0,0 km/h NO 1,8 C 4,6 C 0,0 km/h
24.02.2012 01:00 4,4 C 83 % 1028,2 hPa 0,0 l/m 0,0 km/h O-NO 1,8 C 4,4 C 0,0 km/h
24.02.2012 02:00 4,3 C 83 % 1028,1 hPa 0,0 l/m 0,0 km/h O-NO 1,7 C 4,3 C 0,0 km/h
24.02.2012 03:00 3,9 C 84 % 1027,9 hPa 0,0 l/m 0,0 km/h NO 1,4 C 3,9 C 0,0 km/h
24.02.2012 04:00 3,9 C 84 % 1027,9 hPa 0,0 l/m 0,0 km/h O-SO 1,4 C 3,9 C 0,0 km/h
24.02.2012 05:00 3,8 C 85 % 1028,1 hPa 0,0 l/m 0,0 km/h O-NO 1,5 C 3,8 C 0,0 km/h
24.02.2012 06:00 3,8 C 85 % 1027,6 hPa 0,0 l/m 0,0 km/h N-NO 1,5 C 3,8 C 0,0 km/h
24.02.2012 07:00 3,9 C 85 % 1027,9 hPa 0,0 l/m 1,9 km/h S-SO 1,6 C 3,9 C 1,1 km/h
24.02.2012 08:00 4,3 C 85 % 1028,2 hPa 0,0 l/m 0,0 km/h S-SO 2,0 C 4,3 C 0,0 km/h
24.02.2012 09:00 5,9 C 84 % 1028,2 hPa 0,0 l/m 0,0 km/h W-SW 3,4 C 5,9 C 0,0 km/h
24.02.2012 10:00 7,5 C 81 % 1028,1 hPa 0,0 l/m 0,0 km/h W 4,5 C 7,5 C 0,0 km/h
24.02.2012 11:00 9,1 C 78 % 1028,0 hPa 0,0 l/m 0,0 km/h N-NO 5,5 C 9,1 C 0,0 km/h
24.02.2012 12:00 10,7 C 73 % 1027,9 hPa 0,0 l/m 3,2 km/h S-SW 6,1 C 10,7 C 1,8 km/h
24.02.2012 13:00 13,3 C 66 % 1026,8 hPa 0,0 l/m 0,0 km/h S-SO 7,1 C 13,3 C 0,0 km/h
24.02.2012 14:00 15,6 C 60 % 1026,4 hPa 0,0 l/m 1,9 km/h W 7,9 C 15,6 C 1,1 km/h
24.02.2012 15:00 13,5 C 62 % 1025,7 hPa 0,0 l/m 2,6 km/h W 6,4 C 13,5 C 1,4 km/h
24.02.2012 16:00 13,3 C 67 % 1025,6 hPa 0,0 l/m 1,3 km/h W 7,3 C 13,3 C 0,7 km/h
24.02.2012 17:00 13,6 C 63 % 1025,7 hPa 0,0 l/m 0,0 km/h NO 6,7 C 13,6 C 0,0 km/h
24.02.2012 18:00 7,0 C 79 % 1026,1 hPa 0,0 l/m 0,0 km/h O-NO 3,6 C 7,0 C 0,0 km/h
24.02.2012 19:00 4,8 C 83 % 1026,2 hPa 0,0 l/m 0,0 km/h O-NO 2,2 C 4,8 C 0,0 km/h
24.02.2012 20:00 3,6 C 85 % 1026,6 hPa 0,0 l/m 0,0 km/h O-NO 1,3 C 3,6 C 0,0 km/h
24.02.2012 21:00 4,4 C 85 % 1027,1 hPa 0,0 l/m 0,0 km/h O-NO 2,1 C 4,4 C 0,0 km/h
24.02.2012 22:00 4,7 C 86 % 1026,9 hPa 0,0 l/m 0,0 km/h O-SO 2,6 C 4,7 C 0,0 km/h
24.02.2012 23:00 4,9 C 86 % 1027,3 hPa 0,0 l/m 0,0 km/h SO 2,8 C 4,9 C 0,0 km/h
25.02.2012 00:00 4,9 C 86 % 1026,8 hPa 0,0 l/m 0,0 km/h O-NO 2,8 C 4,9 C 0,0 km/h
25.02.2012 01:00 4,6 C 85 % 1026,3 hPa 0,0 l/m 0,0 km/h O-SO 2,3 C 4,6 C 0,0 km/h
25.02.2012 02:00 4,8 C 86 % 1026,1 hPa 0,0 l/m 0,0 km/h O-SO 2,7 C 4,8 C 0,0 km/h
25.02.2012 03:00 4,9 C 86 % 1026,1 hPa 0,0 l/m 0,0 km/h NO 2,8 C 4,9 C 0,0 km/h
25.02.2012 04:00 5,1 C 86 % 1025,3 hPa 0,0 l/m 0,0 km/h O-NO 3,0 C 5,1 C 0,0 km/h
25.02.2012 05:00 4,9 C 86 % 1025,0 hPa 0,0 l/m 0,0 km/h O-SO 2,8 C 4,9 C 0,0 km/h
25.02.2012 06:00 4,9 C 86 % 1024,6 hPa 0,0 l/m 0,0 km/h N 2,8 C 4,9 C 0,0 km/h
25.02.2012 07:00 5,1 C 86 % 1024,3 hPa 0,0 l/m 0,0 km/h O-SO 3,0 C 5,1 C 0,0 km/h
25.02.2012 08:00 5,4 C 86 % 1024,6 hPa 0,0 l/m 2,6 km/h O-SO 3,3 C 5,4 C 1,4 km/h
25.02.2012 09:00 6,5 C 86 % 1024,6 hPa 0,0 l/m 0,0 km/h O-NO 4,3 C 6,5 C 0,0 km/h
25.02.2012 10:00 7,6 C 85 % 1024,2 hPa 0,0 l/m 0,0 km/h SO 5,2 C 7,6 C 0,0 km/h
25.02.2012 11:00 8,9 C 82 % 1024,0 hPa 0,0 l/m 3,2 km/h W-SW 6,0 C 8,9 C 1,8 km/h
25.02.2012 12:00 11,1 C 77 % 1023,3 hPa 0,0 l/m 0,0 km/h N-NO 7,2 C 11,1 C 0,0 km/h
25.02.2012 13:00 12,4 C 72 % 1022,6 hPa 0,0 l/m 0,0 km/h SO 7,5 C 12,4 C 0,0 km/h
25.02.2012 14:00 14,1 C 69 % 1021,8 hPa 0,0 l/m 0,0 km/h SO 8,5 C 14,1 C 0,0 km/h
25.02.2012 15:00 12,4 C 72 % 1021,4 hPa 0,0 l/m 0,0 km/h SO 7,5 C 12,4 C 0,0 km/h
25.02.2012 16:00 12,1 C 71 % 1021,0 hPa 0,0 l/m 0,0 km/h SO 7,0 C 12,1 C 0,0 km/h
25.02.2012 17:00 10,6 C 73 % 1020,7 hPa 0,0 l/m 0,0 km/h NO 6,0 C 10,6 C 0,0 km/h
25.02.2012 18:00 9,1 C 79 % 1020,7 hPa 0,0 l/m 0,0 km/h W-SW 5,7 C 9,1 C 0,0 km/h
25.02.2012 19:00 8,7 C 83 % 1020,5 hPa 0,0 l/m 0,0 km/h SW 6,0 C 8,7 C 0,0 km/h
25.02.2012 20:00 7,8 C 85 % 1020,8 hPa 0,0 l/m 0,0 km/h N 5,4 C 7,8 C 0,0 km/h
25.02.2012 21:00 7,3 C 85 % 1021,0 hPa 0,4 l/m 0,0 km/h N 4,9 C 7,3 C 0,0 km/h
25.02.2012 22:00 6,9 C 85 % 1020,9 hPa 1,1 l/m 0,0 km/h N 4,6 C 6,9 C 0,0 km/h
25.02.2012 23:00 6,8 C 85 % 1020,4 hPa 0,0 l/m 0,0 km/h N 4,5 C 6,8 C 0,0 km/h
26.02.2012 00:00 6,5 C 85 % 1020,3 hPa 0,7 l/m 0,0 km/h NO 4,2 C 6,5 C 0,0 km/h
26.02.2012 01:00 6,5 C 85 % 1020,3 hPa 0,0 l/m 0,0 km/h NO 4,2 C 6,5 C 0,0 km/h
26.02.2012 02:00 6,1 C 84 % 1020,2 hPa 0,0 l/m 0,0 km/h N 3,6 C 6,1 C 0,0 km/h
26.02.2012 03:00 6,1 C 86 % 1020,3 hPa 0,0 l/m 0,0 km/h N-NO 3,9 C 6,1 C 0,0 km/h
26.02.2012 04:00 5,6 C 86 % 1020,4 hPa 0,0 l/m 0,0 km/h N-NO 3,4 C 5,6 C 0,0 km/h
26.02.2012 05:00 5,3 C 85 % 1020,7 hPa 0,0 l/m 0,0 km/h NW 3,0 C 5,3 C 0,0 km/h
26.02.2012 06:00 4,5 C 85 % 1021,0 hPa 0,0 l/m 0,0 km/h N-NW 2,2 C 4,5 C 0,0 km/h
26.02.2012 07:00 4,4 C 84 % 1021,7 hPa 0,0 l/m 0,0 km/h SO 1,9 C 4,4 C 0,0 km/h
26.02.2012 08:00 4,3 C 85 % 1022,3 hPa 0,0 l/m 0,0 km/h S-SW 2,0 C 4,3 C 0,0 km/h
26.02.2012 09:00 6,1 C 84 % 1022,7 hPa 0,0 l/m 0,0 km/h N 3,6 C 6,1 C 0,0 km/h
26.02.2012 10:00 7,7 C 75 % 1023,0 hPa 0,0 l/m 0,0 km/h N-NW 3,6 C 7,7 C 0,0 km/h
26.02.2012 11:00 9,3 C 67 % 1023,7 hPa 0,0 l/m 0,0 km/h W 3,5 C 9,3 C 0,0 km/h
26.02.2012 12:00 10,0 C 61 % 1023,6 hPa 0,0 l/m 1,9 km/h W 2,8 C 10,0 C 1,1 km/h
26.02.2012 13:00 9,2 C 63 % 1023,5 hPa 0,0 l/m 13,6 km/h W 2,5 C 4,8 C 7,6 km/h
26.02.2012 14:00 7,8 C 65 % 1023,7 hPa 0,0 l/m 0,0 km/h W-NW 1,6 C 7,8 C 0,0 km/h
26.02.2012 15:00 7,8 C 66 % 1024,0 hPa 0,0 l/m 0,0 km/h W-SW 1,9 C 7,8 C 0,0 km/h
26.02.2012 16:00 7,2 C 68 % 1023,7 hPa 0,0 l/m 4,5 km/h SO 1,7 C 7,2 C 2,5 km/h
26.02.2012 17:00 6,4 C 72 % 1024,1 hPa 0,0 l/m 0,0 km/h SO 1,7 C 6,4 C 0,0 km/h
26.02.2012 18:00 5,2 C 77 % 1024,5 hPa 0,0 l/m 0,0 km/h SO 1,5 C 5,2 C 0,0 km/h
26.02.2012 19:00 4,4 C 80 % 1025,0 hPa 0,0 l/m 0,0 km/h O-SO 1,3 C 4,4 C 0,0 km/h
26.02.2012 20:00 3,9 C 84 % 1025,3 hPa 0,0 l/m 8,4 km/h O-NO 1,4 C 2,1 C 4,7 km/h
26.02.2012 21:00 3,8 C 84 % 1025,7 hPa 0,0 l/m 0,0 km/h SO 1,4 C 3,8 C 0,0 km/h
26.02.2012 22:00 3,5 C 85 % 1026,1 hPa 0,0 l/m 0,0 km/h SO 1,2 C 3,5 C 0,0 km/h
26.02.2012 23:00 3,4 C 85 % 1026,1 hPa 0,0 l/m 0,0 km/h O-NO 1,1 C 3,4 C 0,0 km/h
Min-Datum _ 21.02.12 22.02.12 26.02.12 - 20.02.12 - 21.02.12 21.02.12 20.02.12
_ Min-Zeit 07:30 16:30 02:30 - 00:30 - 07:30 07:30 00:30
Minimum _ -6,1 C 35 % 1020,2 hPa - 0,0 km/h - -7,9 C -6,1 C 0,0 km/h
Max-Datum _ 24.02.12 20.02.12 20.02.12 25.02.12 23.02.12 - 25.02.12 24.02.12 23.02.12
_ Max-Zeit 14:30 01:30 11:30 22:30 12:30 - 14:30 14:30 12:30
Maximum _ 15,6 C 87 % 1031,3 hPa 1,1 l/m 42,8 km/h
W
- 8,5 C 15,6 C 23,8 km/h
W
Durchschnitt _ 4,2 C 75 % 1026,7 hPa #2,1 l/m 1,5 km/h O-NO -0,1 C 3,9 C 0,8 km/h
www.sexauwetter.de